sensor_id;sensor_type;location;lat;lon;timestamp;P1;durP1;ratioP1;P2;durP2;ratioP2
23702;SDS011;12030;50.376;8.762;2023-02-28T00:01:00;4.90;;;2.57;;
23702;SDS011;12030;50.376;8.762;2023-02-28T00:03:26;3.57;;;2.60;;
23702;SDS011;12030;50.376;8.762;2023-02-28T00:05:51;2.97;;;2.20;;
23702;SDS011;12030;50.376;8.762;2023-02-28T00:08:17;5.17;;;2.67;;
23702;SDS011;12030;50.376;8.762;2023-02-28T00:10:42;6.30;;;2.87;;
23702;SDS011;12030;50.376;8.762;2023-02-28T00:13:08;2.87;;;2.47;;
23702;SDS011;12030;50.376;8.762;2023-02-28T00:15:34;4.87;;;2.60;;
23702;SDS011;12030;50.376;8.762;2023-02-28T00:17:59;3.73;;;2.53;;
23702;SDS011;12030;50.376;8.762;2023-02-28T00:20:25;3.60;;;2.80;;
23702;SDS011;12030;50.376;8.762;2023-02-28T00:22:52;3.43;;;2.90;;
23702;SDS011;12030;50.376;8.762;2023-02-28T00:25:19;3.93;;;2.97;;
23702;SDS011;12030;50.376;8.762;2023-02-28T00:27:46;4.20;;;2.90;;
23702;SDS011;12030;50.376;8.762;2023-02-28T00:30:13;3.53;;;2.80;;
23702;SDS011;12030;50.376;8.762;2023-02-28T00:32:43;3.73;;;2.97;;
23702;SDS011;12030;50.376;8.762;2023-02-28T00:35:09;4.90;;;2.70;;
23702;SDS011;12030;50.376;8.762;2023-02-28T00:37:36;4.93;;;2.60;;
23702;SDS011;12030;50.376;8.762;2023-02-28T00:40:02;4.13;;;3.10;;
23702;SDS011;12030;50.376;8.762;2023-02-28T00:42:30;6.43;;;3.20;;
23702;SDS011;12030;50.376;8.762;2023-02-28T00:44:56;3.53;;;2.90;;
23702;SDS011;12030;50.376;8.762;2023-02-28T00:47:21;4.07;;;2.90;;
23702;SDS011;12030;50.376;8.762;2023-02-28T00:49:47;4.23;;;2.67;;
23702;SDS011;12030;50.376;8.762;2023-02-28T00:52:13;3.00;;;2.37;;
23702;SDS011;12030;50.376;8.762;2023-02-28T00:54:38;3.43;;;3.13;;
23702;SDS011;12030;50.376;8.762;2023-02-28T00:57:04;3.77;;;2.97;;
23702;SDS011;12030;50.376;8.762;2023-02-28T00:59:29;4.33;;;2.67;;
23702;SDS011;12030;50.376;8.762;2023-02-28T01:01:55;2.83;;;2.40;;
23702;SDS011;12030;50.376;8.762;2023-02-28T01:04:20;4.17;;;2.80;;
23702;SDS011;12030;50.376;8.762;2023-02-28T01:06:46;3.07;;;2.73;;
23702;SDS011;12030;50.376;8.762;2023-02-28T01:09:12;3.40;;;2.20;;
23702;SDS011;12030;50.376;8.762;2023-02-28T01:11:37;3.80;;;2.60;;
23702;SDS011;12030;50.376;8.762;2023-02-28T01:14:04;3.10;;;2.80;;
23702;SDS011;12030;50.376;8.762;2023-02-28T01:16:30;3.87;;;3.13;;
23702;SDS011;12030;50.376;8.762;2023-02-28T01:18:55;3.57;;;2.80;;
23702;SDS011;12030;50.376;8.762;2023-02-28T01:21:21;5.07;;;3.30;;
23702;SDS011;12030;50.376;8.762;2023-02-28T01:23:47;3.20;;;2.90;;
23702;SDS011;12030;50.376;8.762;2023-02-28T01:26:15;4.73;;;3.53;;
23702;SDS011;12030;50.376;8.762;2023-02-28T01:28:45;3.30;;;3.00;;
23702;SDS011;12030;50.376;8.762;2023-02-28T01:31:11;4.97;;;3.17;;
23702;SDS011;12030;50.376;8.762;2023-02-28T01:33:37;5.43;;;3.30;;
23702;SDS011;12030;50.376;8.762;2023-02-28T01:36:05;5.27;;;3.63;;
23702;SDS011;12030;50.376;8.762;2023-02-28T01:38:32;4.17;;;3.20;;
23702;SDS011;12030;50.376;8.762;2023-02-28T01:40:58;5.03;;;3.57;;
23702;SDS011;12030;50.376;8.762;2023-02-28T01:43:25;5.47;;;3.30;;
23702;SDS011;12030;50.376;8.762;2023-02-28T01:45:55;3.67;;;3.20;;
23702;SDS011;12030;50.376;8.762;2023-02-28T01:48:29;3.90;;;3.27;;
23702;SDS011;12030;50.376;8.762;2023-02-28T01:50:59;5.43;;;3.60;;
23702;SDS011;12030;50.376;8.762;2023-02-28T01:53:31;4.53;;;3.17;;
23702;SDS011;12030;50.376;8.762;2023-02-28T01:56:01;4.43;;;3.73;;
23702;SDS011;12030;50.376;8.762;2023-02-28T01:58:31;4.53;;;3.20;;
23702;SDS011;12030;50.376;8.762;2023-02-28T02:00:56;4.53;;;3.03;;
23702;SDS011;12030;50.376;8.762;2023-02-28T02:03:22;3.67;;;3.20;;
23702;SDS011;12030;50.376;8.762;2023-02-28T02:05:49;5.17;;;3.30;;
23702;SDS011;12030;50.376;8.762;2023-02-28T02:08:19;5.93;;;2.90;;
23702;SDS011;12030;50.376;8.762;2023-02-28T02:13:26;4.40;;;3.50;;
23702;SDS011;12030;50.376;8.762;2023-02-28T02:25:11;5.37;;;3.03;;
23702;SDS011;12030;50.376;8.762;2023-02-28T02:42:29;3.43;;;3.00;;
23702;SDS011;12030;50.376;8.762;2023-02-28T02:45:09;3.83;;;3.27;;
23702;SDS011;12030;50.376;8.762;2023-02-28T02:47:38;3.93;;;3.30;;
23702;SDS011;12030;50.376;8.762;2023-02-28T02:50:06;5.40;;;2.97;;
23702;SDS011;12030;50.376;8.762;2023-02-28T02:52:42;4.60;;;3.17;;
23702;SDS011;12030;50.376;8.762;2023-02-28T02:55:12;5.33;;;3.53;;
23702;SDS011;12030;50.376;8.762;2023-02-28T03:00:13;5.47;;;3.27;;
23702;SDS011;12030;50.376;8.762;2023-02-28T03:02:42;3.50;;;3.20;;
23702;SDS011;12030;50.376;8.762;2023-02-28T03:05:21;3.53;;;2.93;;
23702;SDS011;12030;50.376;8.762;2023-02-28T03:07:53;3.70;;;3.10;;
23702;SDS011;12030;50.376;8.762;2023-02-28T03:13:12;4.57;;;3.30;;
23702;SDS011;12030;50.376;8.762;2023-02-28T03:18:32;6.23;;;2.97;;
23702;SDS011;12030;50.376;8.762;2023-02-28T03:21:42;3.13;;;2.80;;
23702;SDS011;12030;50.376;8.762;2023-02-28T03:24:10;3.83;;;3.30;;
23702;SDS011;12030;50.376;8.762;2023-02-28T03:27:07;3.37;;;2.80;;
23702;SDS011;12030;50.376;8.762;2023-02-28T03:29:43;4.10;;;2.60;;
23702;SDS011;12030;50.376;8.762;2023-02-28T03:35:32;3.73;;;3.30;;
23702;SDS011;12030;50.376;8.762;2023-02-28T03:41:10;4.17;;;2.90;;
23702;SDS011;12030;50.376;8.762;2023-02-28T03:43:41;3.03;;;2.80;;
23702;SDS011;12030;50.376;8.762;2023-02-28T03:46:14;3.30;;;2.53;;
23702;SDS011;12030;50.376;8.762;2023-02-28T03:48:48;3.13;;;2.77;;
23702;SDS011;12030;50.376;8.762;2023-02-28T03:51:21;3.83;;;2.93;;
23702;SDS011;12030;50.376;8.762;2023-02-28T03:53:53;4.13;;;2.80;;
23702;SDS011;12030;50.376;8.762;2023-02-28T03:56:34;2.87;;;2.60;;
23702;SDS011;12030;50.376;8.762;2023-02-28T03:59:05;3.63;;;2.87;;
23702;SDS011;12030;50.376;8.762;2023-02-28T04:01:38;5.33;;;2.73;;
23702;SDS011;12030;50.376;8.762;2023-02-28T04:04:09;4.10;;;2.90;;
23702;SDS011;12030;50.376;8.762;2023-02-28T04:06:36;3.10;;;2.80;;
23702;SDS011;12030;50.376;8.762;2023-02-28T04:09:02;3.50;;;2.90;;
23702;SDS011;12030;50.376;8.762;2023-02-28T04:11:32;5.00;;;3.30;;
23702;SDS011;12030;50.376;8.762;2023-02-28T04:14:03;5.37;;;3.27;;
23702;SDS011;12030;50.376;8.762;2023-02-28T04:16:30;3.87;;;3.00;;
23702;SDS011;12030;50.376;8.762;2023-02-28T04:18:56;4.70;;;3.47;;
23702;SDS011;12030;50.376;8.762;2023-02-28T04:21:32;4.73;;;2.97;;
23702;SDS011;12030;50.376;8.762;2023-02-28T04:23:59;5.20;;;3.77;;
23702;SDS011;12030;50.376;8.762;2023-02-28T04:26:27;4.57;;;3.37;;
23702;SDS011;12030;50.376;8.762;2023-02-28T04:28:55;4.37;;;3.47;;
23702;SDS011;12030;50.376;8.762;2023-02-28T04:31:21;4.07;;;3.33;;
23702;SDS011;12030;50.376;8.762;2023-02-28T04:33:46;4.77;;;3.40;;
23702;SDS011;12030;50.376;8.762;2023-02-28T04:36:12;4.10;;;3.20;;
23702;SDS011;12030;50.376;8.762;2023-02-28T04:38:39;3.57;;;3.00;;
23702;SDS011;12030;50.376;8.762;2023-02-28T04:41:05;3.93;;;3.17;;
23702;SDS011;12030;50.376;8.762;2023-02-28T04:43:31;5.07;;;3.63;;
23702;SDS011;12030;50.376;8.762;2023-02-28T04:45:57;3.77;;;3.37;;
23702;SDS011;12030;50.376;8.762;2023-02-28T04:48:29;4.63;;;3.20;;
23702;SDS011;12030;50.376;8.762;2023-02-28T04:51:00;4.17;;;3.20;;
23702;SDS011;12030;50.376;8.762;2023-02-28T04:53:27;5.37;;;3.50;;
23702;SDS011;12030;50.376;8.762;2023-02-28T04:55:54;4.07;;;3.67;;
23702;SDS011;12030;50.376;8.762;2023-02-28T04:58:20;5.10;;;4.00;;
23702;SDS011;12030;50.376;8.762;2023-02-28T05:00:48;4.63;;;3.67;;
23702;SDS011;12030;50.376;8.762;2023-02-28T05:03:14;6.07;;;3.60;;
23702;SDS011;12030;50.376;8.762;2023-02-28T05:05:40;5.57;;;3.50;;
23702;SDS011;12030;50.376;8.762;2023-02-28T05:08:05;5.27;;;3.70;;
23702;SDS011;12030;50.376;8.762;2023-02-28T05:10:31;4.10;;;3.70;;
23702;SDS011;12030;50.376;8.762;2023-02-28T05:12:57;4.37;;;3.40;;
23702;SDS011;12030;50.376;8.762;2023-02-28T05:15:23;4.33;;;3.50;;
23702;SDS011;12030;50.376;8.762;2023-02-28T05:17:49;7.47;;;3.83;;
23702;SDS011;12030;50.376;8.762;2023-02-28T05:20:15;5.10;;;3.87;;
23702;SDS011;12030;50.376;8.762;2023-02-28T05:22:42;6.00;;;3.63;;
23702;SDS011;12030;50.376;8.762;2023-02-28T05:25:12;4.60;;;3.63;;
23702;SDS011;12030;50.376;8.762;2023-02-28T05:27:42;5.80;;;3.80;;
23702;SDS011;12030;50.376;8.762;2023-02-28T05:30:07;3.97;;;3.50;;
23702;SDS011;12030;50.376;8.762;2023-02-28T05:32:35;3.87;;;3.47;;
23702;SDS011;12030;50.376;8.762;2023-02-28T05:35:07;4.70;;;3.70;;
23702;SDS011;12030;50.376;8.762;2023-02-28T05:37:35;11.07;;;5.13;;
23702;SDS011;12030;50.376;8.762;2023-02-28T05:40:01;5.60;;;4.10;;
23702;SDS011;12030;50.376;8.762;2023-02-28T05:42:30;5.93;;;4.10;;
23702;SDS011;12030;50.376;8.762;2023-02-28T05:44:56;5.73;;;3.80;;
23702;SDS011;12030;50.376;8.762;2023-02-28T05:47:22;5.73;;;4.43;;
23702;SDS011;12030;50.376;8.762;2023-02-28T05:49:48;4.27;;;3.87;;
23702;SDS011;12030;50.376;8.762;2023-02-28T05:52:14;7.43;;;4.13;;
23702;SDS011;12030;50.376;8.762;2023-02-28T05:54:40;5.57;;;4.00;;
23702;SDS011;12030;50.376;8.762;2023-02-28T05:57:06;4.20;;;3.73;;
23702;SDS011;12030;50.376;8.762;2023-02-28T05:59:31;6.13;;;4.17;;
23702;SDS011;12030;50.376;8.762;2023-02-28T06:01:57;4.50;;;3.47;;
23702;SDS011;12030;50.376;8.762;2023-02-28T06:04:22;4.90;;;3.80;;
23702;SDS011;12030;50.376;8.762;2023-02-28T06:06:48;8.27;;;4.30;;
23702;SDS011;12030;50.376;8.762;2023-02-28T06:09:14;4.13;;;3.20;;
23702;SDS011;12030;50.376;8.762;2023-02-28T06:11:41;5.50;;;4.20;;
23702;SDS011;12030;50.376;8.762;2023-02-28T06:14:07;8.63;;;4.00;;
23702;SDS011;12030;50.376;8.762;2023-02-28T06:16:33;6.83;;;4.17;;
23702;SDS011;12030;50.376;8.762;2023-02-28T06:19:00;6.90;;;4.47;;
23702;SDS011;12030;50.376;8.762;2023-02-28T06:21:27;5.83;;;4.30;;
23702;SDS011;12030;50.376;8.762;2023-02-28T06:23:53;6.03;;;4.13;;
23702;SDS011;12030;50.376;8.762;2023-02-28T06:26:20;6.80;;;4.77;;
23702;SDS011;12030;50.376;8.762;2023-02-28T06:28:46;6.07;;;4.73;;
23702;SDS011;12030;50.376;8.762;2023-02-28T06:31:12;4.10;;;3.50;;
23702;SDS011;12030;50.376;8.762;2023-02-28T06:33:41;7.60;;;3.90;;
23702;SDS011;12030;50.376;8.762;2023-02-28T06:36:07;6.00;;;4.20;;
23702;SDS011;12030;50.376;8.762;2023-02-28T06:38:34;5.33;;;3.87;;
23702;SDS011;12030;50.376;8.762;2023-02-28T06:41:00;4.47;;;3.87;;
23702;SDS011;12030;50.376;8.762;2023-02-28T06:43:27;5.10;;;3.57;;
23702;SDS011;12030;50.376;8.762;2023-02-28T06:45:56;5.10;;;3.90;;
23702;SDS011;12030;50.376;8.762;2023-02-28T06:48:23;5.80;;;3.30;;
23702;SDS011;12030;50.376;8.762;2023-02-28T06:50:50;5.50;;;4.13;;
23702;SDS011;12030;50.376;8.762;2023-02-28T06:53:16;5.30;;;3.37;;
23702;SDS011;12030;50.376;8.762;2023-02-28T06:55:41;6.47;;;4.10;;
23702;SDS011;12030;50.376;8.762;2023-02-28T06:58:07;6.40;;;3.70;;
23702;SDS011;12030;50.376;8.762;2023-02-28T07:00:39;3.73;;;3.20;;
23702;SDS011;12030;50.376;8.762;2023-02-28T07:03:08;4.70;;;3.60;;
23702;SDS011;12030;50.376;8.762;2023-02-28T07:05:35;4.53;;;3.10;;
23702;SDS011;12030;50.376;8.762;2023-02-28T07:08:02;5.77;;;3.57;;
23702;SDS011;12030;50.376;8.762;2023-02-28T07:10:28;6.20;;;4.30;;
23702;SDS011;12030;50.376;8.762;2023-02-28T07:12:54;5.97;;;4.27;;
23702;SDS011;12030;50.376;8.762;2023-02-28T07:15:19;8.57;;;5.93;;
23702;SDS011;12030;50.376;8.762;2023-02-28T07:17:45;13.47;;;7.87;;
23702;SDS011;12030;50.376;8.762;2023-02-28T07:20:10;18.00;;;10.80;;
23702;SDS011;12030;50.376;8.762;2023-02-28T07:22:36;18.20;;;8.97;;
23702;SDS011;12030;50.376;8.762;2023-02-28T07:25:03;24.30;;;12.83;;
23702;SDS011;12030;50.376;8.762;2023-02-28T07:27:29;26.73;;;13.67;;
23702;SDS011;12030;50.376;8.762;2023-02-28T07:29:55;22.00;;;11.10;;
23702;SDS011;12030;50.376;8.762;2023-02-28T07:32:20;29.43;;;14.90;;
23702;SDS011;12030;50.376;8.762;2023-02-28T07:34:46;12.73;;;6.63;;
23702;SDS011;12030;50.376;8.762;2023-02-28T07:37:12;10.10;;;6.83;;
23702;SDS011;12030;50.376;8.762;2023-02-28T07:39:37;9.77;;;6.20;;
23702;SDS011;12030;50.376;8.762;2023-02-28T07:42:06;9.57;;;6.43;;
23702;SDS011;12030;50.376;8.762;2023-02-28T07:44:35;5.87;;;3.97;;
23702;SDS011;12030;50.376;8.762;2023-02-28T07:47:05;5.70;;;4.40;;
23702;SDS011;12030;50.376;8.762;2023-02-28T07:49:31;7.50;;;5.67;;
23702;SDS011;12030;50.376;8.762;2023-02-28T07:51:57;9.67;;;6.30;;
23702;SDS011;12030;50.376;8.762;2023-02-28T07:54:22;6.77;;;4.87;;
23702;SDS011;12030;50.376;8.762;2023-02-28T07:56:48;7.73;;;4.77;;
23702;SDS011;12030;50.376;8.762;2023-02-28T07:59:13;6.37;;;3.70;;
23702;SDS011;12030;50.376;8.762;2023-02-28T08:01:39;7.10;;;3.93;;
23702;SDS011;12030;50.376;8.762;2023-02-28T08:04:04;4.97;;;4.17;;
23702;SDS011;12030;50.376;8.762;2023-02-28T08:06:30;5.77;;;3.80;;
23702;SDS011;12030;50.376;8.762;2023-02-28T08:08:55;8.63;;;3.60;;
23702;SDS011;12030;50.376;8.762;2023-02-28T08:11:21;4.93;;;3.97;;
23702;SDS011;12030;50.376;8.762;2023-02-28T08:13:47;4.33;;;3.37;;
23702;SDS011;12030;50.376;8.762;2023-02-28T08:16:13;3.53;;;3.10;;
23702;SDS011;12030;50.376;8.762;2023-02-28T08:18:42;3.03;;;2.60;;
23702;SDS011;12030;50.376;8.762;2023-02-28T08:21:08;4.47;;;3.53;;
23702;SDS011;12030;50.376;8.762;2023-02-28T08:23:35;4.40;;;3.60;;
23702;SDS011;12030;50.376;8.762;2023-02-28T08:26:00;3.43;;;2.80;;
23702;SDS011;12030;50.376;8.762;2023-02-28T08:28:27;5.87;;;3.60;;
23702;SDS011;12030;50.376;8.762;2023-02-28T08:30:52;4.70;;;2.90;;
23702;SDS011;12030;50.376;8.762;2023-02-28T08:33:18;5.13;;;3.33;;
23702;SDS011;12030;50.376;8.762;2023-02-28T08:35:44;3.50;;;2.87;;
23702;SDS011;12030;50.376;8.762;2023-02-28T08:38:09;4.57;;;3.00;;
23702;SDS011;12030;50.376;8.762;2023-02-28T08:40:35;3.47;;;3.07;;
23702;SDS011;12030;50.376;8.762;2023-02-28T08:43:00;4.67;;;3.03;;
23702;SDS011;12030;50.376;8.762;2023-02-28T08:45:26;3.73;;;2.97;;
23702;SDS011;12030;50.376;8.762;2023-02-28T08:47:53;4.57;;;2.73;;
23702;SDS011;12030;50.376;8.762;2023-02-28T08:50:20;3.07;;;2.70;;
23702;SDS011;12030;50.376;8.762;2023-02-28T08:52:45;5.37;;;2.83;;
23702;SDS011;12030;50.376;8.762;2023-02-28T08:55:12;6.20;;;2.90;;
23702;SDS011;12030;50.376;8.762;2023-02-28T08:57:37;3.63;;;2.67;;
23702;SDS011;12030;50.376;8.762;2023-02-28T09:00:03;2.63;;;2.27;;
23702;SDS011;12030;50.376;8.762;2023-02-28T09:02:32;2.77;;;2.10;;
23702;SDS011;12030;50.376;8.762;2023-02-28T09:04:58;2.37;;;2.10;;
23702;SDS011;12030;50.376;8.762;2023-02-28T09:07:24;5.27;;;2.77;;
23702;SDS011;12030;50.376;8.762;2023-02-28T09:09:50;3.63;;;2.40;;
23702;SDS011;12030;50.376;8.762;2023-02-28T09:12:25;3.27;;;2.47;;
23702;SDS011;12030;50.376;8.762;2023-02-28T09:14:52;3.57;;;2.80;;
23702;SDS011;12030;50.376;8.762;2023-02-28T09:17:18;3.93;;;2.40;;
23702;SDS011;12030;50.376;8.762;2023-02-28T09:19:44;2.77;;;2.30;;
23702;SDS011;12030;50.376;8.762;2023-02-28T09:22:12;4.30;;;2.20;;
23702;SDS011;12030;50.376;8.762;2023-02-28T09:24:37;3.37;;;2.60;;
23702;SDS011;12030;50.376;8.762;2023-02-28T09:27:03;3.73;;;2.47;;
23702;SDS011;12030;50.376;8.762;2023-02-28T09:29:30;2.63;;;2.23;;
23702;SDS011;12030;50.376;8.762;2023-02-28T09:31:56;3.20;;;2.30;;
23702;SDS011;12030;50.376;8.762;2023-02-28T09:34:24;5.80;;;2.13;;
23702;SDS011;12030;50.376;8.762;2023-02-28T09:36:50;7.70;;;5.10;;
23702;SDS011;12030;50.376;8.762;2023-02-28T09:39:19;5.23;;;2.90;;
23702;SDS011;12030;50.376;8.762;2023-02-28T09:41:45;4.67;;;2.80;;
23702;SDS011;12030;50.376;8.762;2023-02-28T09:44:37;4.50;;;2.67;;
23702;SDS011;12030;50.376;8.762;2023-02-28T09:47:20;4.77;;;3.00;;
23702;SDS011;12030;50.376;8.762;2023-02-28T09:50:08;5.03;;;3.30;;
23702;SDS011;12030;50.376;8.762;2023-02-28T09:52:54;5.33;;;3.10;;
23702;SDS011;12030;50.376;8.762;2023-02-28T09:55:27;3.60;;;2.90;;
23702;SDS011;12030;50.376;8.762;2023-02-28T09:57:57;4.70;;;3.07;;
23702;SDS011;12030;50.376;8.762;2023-02-28T10:00:27;3.30;;;2.57;;
23702;SDS011;12030;50.376;8.762;2023-02-28T10:03:06;2.70;;;2.20;;
23702;SDS011;12030;50.376;8.762;2023-02-28T10:08:34;3.17;;;2.47;;
23702;SDS011;12030;50.376;8.762;2023-02-28T10:11:07;3.37;;;2.73;;
23702;SDS011;12030;50.376;8.762;2023-02-28T10:16:19;3.03;;;2.73;;
23702;SDS011;12030;50.376;8.762;2023-02-28T10:24:34;4.17;;;2.57;;
23702;SDS011;12030;50.376;8.762;2023-02-28T10:27:14;3.17;;;2.50;;
23702;SDS011;12030;50.376;8.762;2023-02-28T10:29:44;3.00;;;2.53;;
23702;SDS011;12030;50.376;8.762;2023-02-28T10:32:13;5.40;;;2.77;;
23702;SDS011;12030;50.376;8.762;2023-02-28T10:34:41;2.80;;;2.47;;
23702;SDS011;12030;50.376;8.762;2023-02-28T10:37:07;3.30;;;2.47;;
23702;SDS011;12030;50.376;8.762;2023-02-28T10:39:35;3.77;;;2.70;;
23702;SDS011;12030;50.376;8.762;2023-02-28T10:42:04;5.33;;;2.73;;
23702;SDS011;12030;50.376;8.762;2023-02-28T10:44:30;4.33;;;2.43;;
23702;SDS011;12030;50.376;8.762;2023-02-28T10:46:55;3.23;;;2.83;;
23702;SDS011;12030;50.376;8.762;2023-02-28T10:49:27;3.00;;;2.70;;
23702;SDS011;12030;50.376;8.762;2023-02-28T10:51:57;4.23;;;3.17;;
23702;SDS011;12030;50.376;8.762;2023-02-28T10:54:27;3.43;;;2.67;;
23702;SDS011;12030;50.376;8.762;2023-02-28T10:57:15;3.93;;;2.77;;
23702;SDS011;12030;50.376;8.762;2023-02-28T10:59:48;3.53;;;2.93;;
23702;SDS011;12030;50.376;8.762;2023-02-28T11:02:32;4.13;;;2.93;;
23702;SDS011;12030;50.376;8.762;2023-02-28T11:05:00;4.33;;;2.87;;
23702;SDS011;12030;50.376;8.762;2023-02-28T11:07:26;5.00;;;3.27;;
23702;SDS011;12030;50.376;8.762;2023-02-28T11:09:56;3.47;;;2.97;;
23702;SDS011;12030;50.376;8.762;2023-02-28T11:12:24;4.10;;;2.90;;
23702;SDS011;12030;50.376;8.762;2023-02-28T11:15:04;4.03;;;3.10;;
23702;SDS011;12030;50.376;8.762;2023-02-28T11:17:43;3.73;;;3.00;;
23702;SDS011;12030;50.376;8.762;2023-02-28T11:20:10;4.33;;;2.83;;
23702;SDS011;12030;50.376;8.762;2023-02-28T11:22:45;2.50;;;2.30;;
23702;SDS011;12030;50.376;8.762;2023-02-28T11:25:55;5.87;;;3.07;;
23702;SDS011;12030;50.376;8.762;2023-02-28T11:28:03;4.47;;;3.50;;
23702;SDS011;12030;50.376;8.762;2023-02-28T11:30:37;3.33;;;3.03;;
23702;SDS011;12030;50.376;8.762;2023-02-28T11:35:53;4.07;;;3.17;;
23702;SDS011;12030;50.376;8.762;2023-02-28T11:38:24;3.77;;;2.87;;
23702;SDS011;12030;50.376;8.762;2023-02-28T11:51:43;3.50;;;2.90;;
23702;SDS011;12030;50.376;8.762;2023-02-28T12:08:22;4.17;;;3.43;;
23702;SDS011;12030;50.376;8.762;2023-02-28T12:11:05;4.10;;;3.20;;
23702;SDS011;12030;50.376;8.762;2023-02-28T12:13:46;6.83;;;3.37;;
23702;SDS011;12030;50.376;8.762;2023-02-28T12:22:01;5.33;;;3.10;;
23702;SDS011;12030;50.376;8.762;2023-02-28T12:25:00;4.80;;;3.37;;
23702;SDS011;12030;50.376;8.762;2023-02-28T12:27:31;4.73;;;3.20;;
23702;SDS011;12030;50.376;8.762;2023-02-28T12:30:17;4.53;;;3.13;;
23702;SDS011;12030;50.376;8.762;2023-02-28T12:32:48;3.47;;;3.10;;
23702;SDS011;12030;50.376;8.762;2023-02-28T12:35:25;4.87;;;3.17;;
23702;SDS011;12030;50.376;8.762;2023-02-28T12:37:59;4.27;;;3.33;;
23702;SDS011;12030;50.376;8.762;2023-02-28T12:40:44;3.73;;;3.20;;
23702;SDS011;12030;50.376;8.762;2023-02-28T12:43:22;3.87;;;2.90;;
23702;SDS011;12030;50.376;8.762;2023-02-28T12:45:56;5.13;;;3.10;;
23702;SDS011;12030;50.376;8.762;2023-02-28T12:48:39;5.90;;;3.67;;
23702;SDS011;12030;50.376;8.762;2023-02-28T12:51:07;6.70;;;3.20;;
23702;SDS011;12030;50.376;8.762;2023-02-28T12:58:51;4.77;;;3.23;;
23702;SDS011;12030;50.376;8.762;2023-02-28T13:09:53;3.77;;;3.13;;
23702;SDS011;12030;50.376;8.762;2023-02-28T13:12:21;5.97;;;3.00;;
23702;SDS011;12030;50.376;8.762;2023-02-28T13:14:48;4.00;;;2.87;;
23702;SDS011;12030;50.376;8.762;2023-02-28T13:17:18;3.40;;;2.70;;
23702;SDS011;12030;50.376;8.762;2023-02-28T13:19:55;4.00;;;3.03;;
23702;SDS011;12030;50.376;8.762;2023-02-28T13:25:00;4.67;;;3.20;;
23702;SDS011;12030;50.376;8.762;2023-02-28T13:27:36;5.53;;;4.50;;
23702;SDS011;12030;50.376;8.762;2023-02-28T13:33:26;3.47;;;2.87;;
23702;SDS011;12030;50.376;8.762;2023-02-28T13:44:03;3.27;;;2.93;;
23702;SDS011;12030;50.376;8.762;2023-02-28T13:54:45;3.30;;;3.00;;
23702;SDS011;12030;50.376;8.762;2023-02-28T14:05:36;4.10;;;3.00;;
23702;SDS011;12030;50.376;8.762;2023-02-28T14:08:06;4.67;;;3.60;;
23702;SDS011;12030;50.376;8.762;2023-02-28T14:10:45;5.83;;;4.17;;
23702;SDS011;12030;50.376;8.762;2023-02-28T14:16:00;3.67;;;2.80;;
23702;SDS011;12030;50.376;8.762;2023-02-28T14:18:28;4.30;;;3.90;;
23702;SDS011;12030;50.376;8.762;2023-02-28T14:20:58;4.43;;;3.30;;
23702;SDS011;12030;50.376;8.762;2023-02-28T14:23:54;3.70;;;2.97;;
23702;SDS011;12030;50.376;8.762;2023-02-28T14:26:55;4.20;;;3.20;;
23702;SDS011;12030;50.376;8.762;2023-02-28T14:38:13;6.23;;;3.60;;
23702;SDS011;12030;50.376;8.762;2023-02-28T14:40:43;6.13;;;3.60;;
23702;SDS011;12030;50.376;8.762;2023-02-28T14:43:21;5.00;;;3.70;;
23702;SDS011;12030;50.376;8.762;2023-02-28T14:45:52;3.53;;;3.00;;
23702;SDS011;12030;50.376;8.762;2023-02-28T14:48:20;4.23;;;3.10;;
23702;SDS011;12030;50.376;8.762;2023-02-28T14:50:54;5.50;;;3.30;;
23702;SDS011;12030;50.376;8.762;2023-02-28T14:53:23;3.93;;;3.20;;
23702;SDS011;12030;50.376;8.762;2023-02-28T14:55:52;5.50;;;3.70;;
23702;SDS011;12030;50.376;8.762;2023-02-28T14:58:31;3.73;;;3.27;;
23702;SDS011;12030;50.376;8.762;2023-02-28T15:00:59;10.20;;;7.00;;
23702;SDS011;12030;50.376;8.762;2023-02-28T15:06:01;4.87;;;3.40;;
23702;SDS011;12030;50.376;8.762;2023-02-28T15:08:30;6.97;;;3.63;;
23702;SDS011;12030;50.376;8.762;2023-02-28T15:11:01;6.67;;;3.30;;
23702;SDS011;12030;50.376;8.762;2023-02-28T15:13:44;4.53;;;3.53;;
23702;SDS011;12030;50.376;8.762;2023-02-28T15:16:20;4.37;;;3.67;;
23702;SDS011;12030;50.376;8.762;2023-02-28T15:19:05;11.83;;;9.07;;
23702;SDS011;12030;50.376;8.762;2023-02-28T15:21:41;4.13;;;3.33;;
23702;SDS011;12030;50.376;8.762;2023-02-28T15:24:17;4.37;;;3.67;;
23702;SDS011;12030;50.376;8.762;2023-02-28T15:27:06;6.80;;;5.77;;
23702;SDS011;12030;50.376;8.762;2023-02-28T15:29:44;5.87;;;4.03;;
23702;SDS011;12030;50.376;8.762;2023-02-28T15:32:30;5.40;;;4.47;;
23702;SDS011;12030;50.376;8.762;2023-02-28T15:34:58;5.20;;;4.00;;
23702;SDS011;12030;50.376;8.762;2023-02-28T15:37:46;10.33;;;7.70;;
23702;SDS011;12030;50.376;8.762;2023-02-28T15:40:23;6.53;;;5.60;;
23702;SDS011;12030;50.376;8.762;2023-02-28T15:45:44;6.43;;;4.20;;
23702;SDS011;12030;50.376;8.762;2023-02-28T15:50:44;10.57;;;7.30;;
23702;SDS011;12030;50.376;8.762;2023-02-28T15:53:15;5.93;;;4.67;;
23702;SDS011;12030;50.376;8.762;2023-02-28T15:55:43;12.13;;;9.53;;
23702;SDS011;12030;50.376;8.762;2023-02-28T15:58:10;12.03;;;8.53;;
23702;SDS011;12030;50.376;8.762;2023-02-28T16:00:38;5.67;;;3.80;;
23702;SDS011;12030;50.376;8.762;2023-02-28T16:06:07;4.07;;;3.53;;
23702;SDS011;12030;50.376;8.762;2023-02-28T16:08:48;4.43;;;3.70;;
23702;SDS011;12030;50.376;8.762;2023-02-28T16:11:16;6.30;;;5.70;;
23702;SDS011;12030;50.376;8.762;2023-02-28T16:13:41;5.17;;;3.60;;
23702;SDS011;12030;50.376;8.762;2023-02-28T16:16:07;4.60;;;3.37;;
23702;SDS011;12030;50.376;8.762;2023-02-28T16:18:33;4.83;;;3.90;;
23702;SDS011;12030;50.376;8.762;2023-02-28T16:20:58;4.63;;;3.33;;
23702;SDS011;12030;50.376;8.762;2023-02-28T16:23:24;3.37;;;3.03;;
23702;SDS011;12030;50.376;8.762;2023-02-28T16:25:49;3.60;;;3.00;;
23702;SDS011;12030;50.376;8.762;2023-02-28T16:28:19;4.40;;;3.40;;
23702;SDS011;12030;50.376;8.762;2023-02-28T16:30:50;6.67;;;3.30;;
23702;SDS011;12030;50.376;8.762;2023-02-28T16:33:16;4.10;;;3.43;;
23702;SDS011;12030;50.376;8.762;2023-02-28T16:35:42;4.63;;;3.37;;
23702;SDS011;12030;50.376;8.762;2023-02-28T16:38:07;4.17;;;3.27;;
23702;SDS011;12030;50.376;8.762;2023-02-28T16:40:34;3.93;;;3.53;;
23702;SDS011;12030;50.376;8.762;2023-02-28T16:43:01;3.87;;;3.47;;
23702;SDS011;12030;50.376;8.762;2023-02-28T16:45:32;6.27;;;3.60;;
23702;SDS011;12030;50.376;8.762;2023-02-28T16:47:58;4.17;;;3.57;;
23702;SDS011;12030;50.376;8.762;2023-02-28T16:50:25;5.00;;;3.70;;
23702;SDS011;12030;50.376;8.762;2023-02-28T16:52:53;6.33;;;3.77;;
23702;SDS011;12030;50.376;8.762;2023-02-28T16:55:19;4.73;;;3.40;;
23702;SDS011;12030;50.376;8.762;2023-02-28T16:57:48;4.80;;;3.40;;
23702;SDS011;12030;50.376;8.762;2023-02-28T17:00:19;3.80;;;3.07;;
23702;SDS011;12030;50.376;8.762;2023-02-28T17:02:45;5.07;;;3.40;;
23702;SDS011;12030;50.376;8.762;2023-02-28T17:05:11;4.60;;;3.37;;
23702;SDS011;12030;50.376;8.762;2023-02-28T17:07:38;5.17;;;3.43;;
23702;SDS011;12030;50.376;8.762;2023-02-28T17:10:17;4.97;;;3.80;;
23702;SDS011;12030;50.376;8.762;2023-02-28T17:12:44;5.50;;;3.50;;
23702;SDS011;12030;50.376;8.762;2023-02-28T17:15:10;4.00;;;3.37;;
23702;SDS011;12030;50.376;8.762;2023-02-28T17:17:37;4.03;;;3.00;;
23702;SDS011;12030;50.376;8.762;2023-02-28T17:20:03;5.77;;;3.60;;
23702;SDS011;12030;50.376;8.762;2023-02-28T17:22:30;4.17;;;3.47;;
23702;SDS011;12030;50.376;8.762;2023-02-28T17:24:56;4.90;;;3.67;;
23702;SDS011;12030;50.376;8.762;2023-02-28T17:27:22;5.37;;;3.30;;
23702;SDS011;12030;50.376;8.762;2023-02-28T17:29:48;8.07;;;3.60;;
23702;SDS011;12030;50.376;8.762;2023-02-28T17:32:13;4.30;;;3.63;;
23702;SDS011;12030;50.376;8.762;2023-02-28T17:34:39;10.00;;;4.40;;